createdAt,value
2023-09-17T00:00:00.570Z,5.70
2023-09-17T00:01:02.857Z,6.30
2023-09-17T00:02:06.233Z,5.45
2023-09-17T00:03:09.186Z,5.00
2023-09-17T00:04:12.380Z,5.10
2023-09-17T00:05:14.557Z,4.93
2023-09-17T00:06:18.198Z,5.47
2023-09-17T00:07:21.514Z,5.47
2023-09-17T00:08:24.847Z,5.75
2023-09-17T00:09:26.762Z,5.00
2023-09-17T00:10:29.802Z,5.10
2023-09-17T00:11:31.837Z,5.10
2023-09-17T00:12:34.747Z,5.50
2023-09-17T00:13:36.840Z,5.13
2023-09-17T00:14:39.787Z,5.50
2023-09-17T00:15:41.780Z,4.40
2023-09-17T00:16:43.948Z,5.15
2023-09-17T00:17:47.040Z,5.30
2023-09-17T00:18:49.015Z,4.97
2023-09-17T00:19:51.944Z,4.32
2023-09-17T00:20:53.814Z,5.20
2023-09-17T00:21:56.721Z,5.53
2023-09-17T00:23:01.750Z,4.50
2023-09-17T00:24:05.054Z,4.80
2023-09-17T00:25:07.551Z,4.95
2023-09-17T00:26:10.414Z,4.93
2023-09-17T00:27:14.730Z,3.67
2023-09-17T00:28:18.136Z,5.10
2023-09-17T00:29:20.018Z,5.32
2023-09-17T00:30:34.861Z,4.32
2023-09-17T00:31:38.754Z,5.35
2023-09-17T00:32:43.115Z,4.40
2023-09-17T00:33:45.754Z,4.95
2023-09-17T00:34:48.965Z,5.40
2023-09-17T00:35:50.855Z,4.75
2023-09-17T00:36:53.684Z,4.90
2023-09-17T00:37:55.592Z,5.03
2023-09-17T00:38:59.846Z,5.30
2023-09-17T00:40:02.436Z,4.28
2023-09-17T00:41:05.391Z,5.45
2023-09-17T00:42:07.744Z,5.05
2023-09-17T00:43:10.757Z,4.20
2023-09-17T00:44:12.833Z,4.65
2023-09-17T00:45:17.548Z,4.15
2023-09-17T00:46:20.971Z,5.40
2023-09-17T00:47:24.466Z,4.88
2023-09-17T00:48:27.490Z,5.20
2023-09-17T00:49:30.800Z,4.47
2023-09-17T00:50:33.619Z,4.78
2023-09-17T00:51:36.525Z,5.38
2023-09-17T00:52:39.587Z,4.50
2023-09-17T00:53:44.002Z,4.70
2023-09-17T00:54:49.172Z,5.25
2023-09-17T00:55:52.779Z,5.00
2023-09-17T00:56:55.257Z,4.10
2023-09-17T00:57:59.595Z,5.32
2023-09-17T00:59:04.770Z,4.70
2023-09-17T01:00:10.753Z,5.35
2023-09-17T01:01:14.350Z,4.90
2023-09-17T01:02:19.313Z,4.35
2023-09-17T01:03:22.662Z,4.70
2023-09-17T01:04:25.852Z,4.88
2023-09-17T01:05:37.963Z,5.03
2023-09-17T01:06:41.065Z,4.68
2023-09-17T01:07:44.546Z,5.03
2023-09-17T01:08:47.925Z,4.93
2023-09-17T01:09:51.873Z,4.20
2023-09-17T01:10:59.169Z,4.82
2023-09-17T01:12:02.584Z,5.15
2023-09-17T01:13:06.506Z,4.63
2023-09-17T01:14:16.547Z,4.63
2023-09-17T01:15:20.261Z,4.00
2023-09-17T01:16:24.994Z,5.30
2023-09-17T01:17:28.544Z,4.28
2023-09-17T01:18:30.763Z,4.57
2023-09-17T01:19:33.776Z,5.35
2023-09-17T01:20:44.080Z,4.18
2023-09-17T01:21:53.684Z,4.65
2023-09-17T01:23:00.432Z,4.88
2023-09-17T01:24:23.090Z,4.32
2023-09-17T01:25:35.685Z,5.28
2023-09-17T01:26:42.149Z,4.28
2023-09-17T01:27:45.912Z,4.38
2023-09-17T01:28:48.989Z,4.95
2023-09-17T01:29:51.775Z,4.80
2023-09-17T01:30:54.623Z,5.30
2023-09-17T01:31:56.780Z,4.28
2023-09-17T01:33:02.506Z,4.78
2023-09-17T01:34:04.879Z,5.05
2023-09-17T01:35:08.816Z,4.10
2023-09-17T01:36:17.654Z,4.35
2023-09-17T01:37:25.427Z,4.80
2023-09-17T01:38:33.553Z,5.00
2023-09-17T01:39:43.041Z,4.75
2023-09-17T01:40:49.464Z,4.50
2023-09-17T01:41:52.918Z,5.15
2023-09-17T01:42:58.168Z,4.53
2023-09-17T01:44:01.431Z,4.28
2023-09-17T01:45:06.665Z,6.22
2023-09-17T01:46:10.747Z,3.95
2023-09-17T01:47:13.133Z,3.95
2023-09-17T01:48:16.863Z,4.38
2023-09-17T01:49:20.964Z,4.60
2023-09-17T01:50:26.011Z,4.50
2023-09-17T01:51:30.924Z,5.03
2023-09-17T01:52:34.172Z,4.78
2023-09-17T01:53:37.645Z,4.82
2023-09-17T01:54:39.781Z,4.28
2023-09-17T01:55:44.106Z,3.90
2023-09-17T01:56:46.193Z,4.82
2023-09-17T01:57:49.921Z,3.55
2023-09-17T01:58:53.430Z,4.78
2023-09-17T01:59:56.414Z,4.68
2023-09-17T02:00:58.529Z,5.00
2023-09-17T02:02:00.689Z,4.60
2023-09-17T02:03:04.895Z,4.63
2023-09-17T02:04:06.918Z,4.75
2023-09-17T02:05:11.812Z,5.38
2023-09-17T02:06:14.936Z,4.25
2023-09-17T02:07:18.454Z,4.30
2023-09-17T02:08:21.422Z,4.43
2023-09-17T02:09:23.460Z,4.80
2023-09-17T02:10:26.378Z,4.63
2023-09-17T02:11:29.096Z,5.38
2023-09-17T02:12:31.976Z,4.00
2023-09-17T02:13:34.076Z,4.90
2023-09-17T02:14:39.445Z,5.40
2023-09-17T02:15:42.357Z,4.68
2023-09-17T02:16:45.602Z,5.93
2023-09-17T02:17:47.595Z,5.30
2023-09-17T02:18:52.090Z,4.20
2023-09-17T02:19:53.986Z,4.00
2023-09-17T02:20:56.877Z,4.80
2023-09-17T02:21:58.704Z,5.32
2023-09-17T02:23:01.883Z,4.47
2023-09-17T02:24:04.302Z,4.55
2023-09-17T02:25:08.093Z,4.90
2023-09-17T02:26:10.025Z,4.45
2023-09-17T02:27:12.927Z,3.97
2023-09-17T02:28:14.892Z,4.55
2023-09-17T02:29:17.877Z,4.80
2023-09-17T02:30:21.521Z,5.13
2023-09-17T02:31:25.283Z,4.68
2023-09-17T02:32:27.556Z,5.00
2023-09-17T02:33:31.041Z,4.93
2023-09-17T02:34:33.148Z,4.22
2023-09-17T02:35:36.183Z,4.30
2023-09-17T02:36:39.149Z,4.32
2023-09-17T02:37:42.250Z,4.38
2023-09-17T02:38:44.520Z,3.83
2023-09-17T02:39:47.597Z,4.45
2023-09-17T02:40:49.626Z,5.25
2023-09-17T02:41:53.416Z,5.00
2023-09-17T02:42:55.388Z,4.50
2023-09-17T02:44:00.297Z,4.93
2023-09-17T02:45:06.144Z,4.00
2023-09-17T02:46:10.422Z,4.53
2023-09-17T02:47:12.467Z,4.65
2023-09-17T02:48:15.716Z,4.63
2023-09-17T02:49:18.035Z,5.20
2023-09-17T02:50:21.786Z,3.97
2023-09-17T02:51:23.776Z,4.25
2023-09-17T02:52:27.965Z,4.53
2023-09-17T02:53:29.979Z,4.03
2023-09-17T02:54:33.115Z,4.40
2023-09-17T02:55:35.644Z,4.22
2023-09-17T02:56:39.317Z,4.65
2023-09-17T02:57:41.192Z,4.28
2023-09-17T02:58:47.156Z,5.70
2023-09-17T02:59:50.048Z,4.75
2023-09-17T03:00:53.222Z,5.35
2023-09-17T03:01:56.783Z,4.88
2023-09-17T03:02:59.779Z,4.85
2023-09-17T03:04:01.850Z,5.10
2023-09-17T03:05:05.094Z,4.85
2023-09-17T03:06:09.487Z,4.57
2023-09-17T03:07:12.837Z,4.50
2023-09-17T03:08:16.030Z,4.63
2023-09-17T03:09:23.185Z,4.78
2023-09-17T03:10:27.364Z,4.97
2023-09-17T03:11:31.837Z,5.82
2023-09-17T03:12:36.518Z,4.35
2023-09-17T03:13:41.173Z,5.10
2023-09-17T03:14:43.128Z,4.88
2023-09-17T03:15:46.656Z,4.63
2023-09-17T03:16:49.642Z,4.80
2023-09-17T03:17:56.482Z,5.18
2023-09-17T03:18:58.363Z,4.35
2023-09-17T03:20:01.209Z,4.20
2023-09-17T03:21:06.258Z,4.88
2023-09-17T03:22:09.493Z,4.47
2023-09-17T03:23:12.627Z,4.20
2023-09-17T03:24:17.968Z,4.60
2023-09-17T03:25:20.107Z,4.47
2023-09-17T03:26:26.299Z,4.00
2023-09-17T03:27:28.238Z,4.30
2023-09-17T03:28:31.774Z,6.50
2023-09-17T03:29:33.895Z,4.50
2023-09-17T03:30:36.751Z,4.63
2023-09-17T03:31:42.436Z,4.88
2023-09-17T03:33:01.917Z,4.70
2023-09-17T03:34:09.451Z,4.32
2023-09-17T03:35:13.063Z,4.82
2023-09-17T03:36:16.060Z,5.07
2023-09-17T03:37:18.316Z,5.90
2023-09-17T03:38:20.378Z,5.13
2023-09-17T03:39:23.531Z,5.20
2023-09-17T03:40:25.883Z,4.57
2023-09-17T03:41:28.979Z,3.85
2023-09-17T03:42:30.923Z,4.40
2023-09-17T03:43:35.830Z,4.93
2023-09-17T03:44:37.817Z,5.63
2023-09-17T03:45:39.826Z,5.03
2023-09-17T03:46:42.981Z,5.15
2023-09-17T03:47:45.595Z,4.95
2023-09-17T03:48:48.889Z,4.57
2023-09-17T03:49:52.183Z,4.40
2023-09-17T03:50:55.150Z,4.85
2023-09-17T03:51:57.121Z,4.60
2023-09-17T03:53:04.347Z,4.70
2023-09-17T03:54:06.510Z,4.97
2023-09-17T03:55:10.711Z,4.78
2023-09-17T03:56:13.172Z,4.80
2023-09-17T03:57:15.218Z,4.70
2023-09-17T03:58:18.335Z,4.90
2023-09-17T03:59:20.799Z,5.20
2023-09-17T04:00:25.158Z,3.80
2023-09-17T04:01:27.249Z,5.00
2023-09-17T04:02:30.247Z,4.97
2023-09-17T04:03:33.254Z,4.70
2023-09-17T04:04:36.189Z,5.82
2023-09-17T04:05:39.662Z,5.22
2023-09-17T04:06:42.607Z,4.45
2023-09-17T04:07:46.169Z,4.55
2023-09-17T04:08:49.306Z,4.78
2023-09-17T04:09:51.274Z,4.15
2023-09-17T04:10:55.888Z,5.25
2023-09-17T04:12:03.697Z,4.65
2023-09-17T04:13:07.952Z,4.95
2023-09-17T04:14:09.972Z,5.05
2023-09-17T04:15:17.763Z,4.95
2023-09-17T04:16:24.543Z,5.00
2023-09-17T04:17:28.731Z,4.43
2023-09-17T04:18:31.696Z,4.22
2023-09-17T04:19:35.211Z,4.45
2023-09-17T04:20:37.337Z,5.18
2023-09-17T04:21:40.611Z,5.43
2023-09-17T04:22:44.415Z,4.78
2023-09-17T04:23:46.557Z,4.80
2023-09-17T04:24:50.991Z,5.15
2023-09-17T04:25:55.203Z,5.18
2023-09-17T04:26:58.847Z,4.95
2023-09-17T04:28:00.857Z,3.83
2023-09-17T04:29:05.908Z,4.10
2023-09-17T04:30:08.739Z,4.65
2023-09-17T04:31:12.073Z,4.70
2023-09-17T04:32:14.173Z,4.57
2023-09-17T04:33:17.467Z,4.80
2023-09-17T04:34:19.620Z,5.47
2023-09-17T04:35:22.682Z,5.28
2023-09-17T04:36:25.028Z,4.50
2023-09-17T04:37:28.434Z,4.75
2023-09-17T04:38:33.497Z,3.95
2023-09-17T04:39:35.380Z,4.30
2023-09-17T04:40:38.471Z,4.60
2023-09-17T04:41:44.038Z,5.00
2023-09-17T04:42:48.565Z,5.15
2023-09-17T04:43:55.107Z,4.53
2023-09-17T04:44:58.879Z,4.22
2023-09-17T04:46:01.801Z,4.80
2023-09-17T04:47:08.756Z,4.70
2023-09-17T04:48:11.663Z,4.80
2023-09-17T04:49:15.701Z,4.85
2023-09-17T04:50:17.778Z,4.50
2023-09-17T04:51:22.194Z,4.78
2023-09-17T04:52:28.932Z,4.10
2023-09-17T04:53:32.502Z,4.90
2023-09-17T04:54:34.468Z,4.00
2023-09-17T04:55:40.588Z,4.63
2023-09-17T04:56:42.581Z,3.88
2023-09-17T04:57:45.503Z,4.55
2023-09-17T04:58:50.063Z,4.47
2023-09-17T04:59:53.145Z,4.63
2023-09-17T05:00:55.273Z,4.20
2023-09-17T05:01:58.841Z,4.50
2023-09-17T05:03:01.571Z,4.20
2023-09-17T05:04:05.125Z,4.80
2023-09-17T05:05:09.686Z,4.72
2023-09-17T05:06:12.636Z,4.70
2023-09-17T05:07:16.030Z,4.00
2023-09-17T05:08:20.666Z,4.97
2023-09-17T05:09:23.697Z,4.35
2023-09-17T05:10:27.195Z,4.35
2023-09-17T05:11:30.774Z,5.05
2023-09-17T05:12:33.739Z,4.80
2023-09-17T05:13:36.124Z,4.90
2023-09-17T05:14:40.378Z,4.75
2023-09-17T05:15:45.975Z,4.30
2023-09-17T05:16:48.984Z,4.00
2023-09-17T05:17:51.435Z,4.50
2023-09-17T05:18:55.205Z,4.70
2023-09-17T05:19:57.102Z,4.25
2023-09-17T05:21:02.943Z,4.97
2023-09-17T05:22:04.953Z,4.55
2023-09-17T05:23:09.755Z,5.40
2023-09-17T05:24:13.284Z,4.43
2023-09-17T05:25:16.588Z,4.63
2023-09-17T05:26:22.270Z,4.55
2023-09-17T05:27:25.792Z,4.30
2023-09-17T05:28:28.901Z,4.75
2023-09-17T05:29:31.065Z,4.97
2023-09-17T05:30:35.609Z,4.38
2023-09-17T05:31:37.669Z,4.00
2023-09-17T05:32:39.784Z,3.95
2023-09-17T05:33:42.720Z,4.93
2023-09-17T05:34:45.448Z,4.50
2023-09-17T05:35:49.508Z,5.18
2023-09-17T05:36:51.471Z,4.43
2023-09-17T05:37:54.431Z,4.90
2023-09-17T05:38:58.347Z,4.65
2023-09-17T05:40:02.637Z,3.80
2023-09-17T05:41:05.045Z,4.22
2023-09-17T05:42:08.317Z,4.78
2023-09-17T05:43:10.406Z,4.75
2023-09-17T05:44:14.314Z,4.18
2023-09-17T05:45:16.802Z,4.25
2023-09-17T05:46:19.762Z,4.70
2023-09-17T05:47:22.045Z,4.50
2023-09-17T05:48:25.359Z,5.18
2023-09-17T05:49:27.273Z,4.40
2023-09-17T05:50:30.348Z,4.15
2023-09-17T05:51:32.387Z,4.05
2023-09-17T05:52:35.284Z,4.07
2023-09-17T05:53:37.522Z,4.90
2023-09-17T05:54:40.550Z,4.85
2023-09-17T05:55:44.624Z,3.53
2023-09-17T05:56:47.457Z,4.10
2023-09-17T05:57:50.276Z,3.72
2023-09-17T05:58:53.245Z,4.80
2023-09-17T05:59:55.153Z,4.25
2023-09-17T06:00:58.047Z,4.45
2023-09-17T06:02:00.523Z,4.25
2023-09-17T06:03:04.242Z,4.63
2023-09-17T06:04:10.220Z,4.60
2023-09-17T06:05:13.210Z,4.43
2023-09-17T06:06:20.186Z,3.92
2023-09-17T06:07:23.381Z,3.97
2023-09-17T06:08:29.277Z,3.90
2023-09-17T06:09:34.557Z,3.80
2023-09-17T06:10:39.522Z,4.05
2023-09-17T06:11:42.848Z,4.00
2023-09-17T06:12:48.551Z,3.65
2023-09-17T06:13:50.660Z,4.57
2023-09-17T06:14:53.806Z,4.05
2023-09-17T06:15:55.970Z,4.57
2023-09-17T06:16:58.979Z,4.75
2023-09-17T06:18:01.308Z,4.30
2023-09-17T06:19:04.537Z,4.93
2023-09-17T06:20:07.836Z,4.57
2023-09-17T06:21:10.791Z,4.60
2023-09-17T06:22:12.700Z,4.07
2023-09-17T06:23:15.691Z,3.65
2023-09-17T06:24:20.152Z,3.55
2023-09-17T06:25:24.425Z,4.50
2023-09-17T06:26:26.483Z,4.38
2023-09-17T06:27:31.377Z,4.30
2023-09-17T06:28:35.190Z,4.35
2023-09-17T06:29:38.155Z,3.83
2023-09-17T06:30:40.156Z,3.67
2023-09-17T06:31:43.746Z,4.18
2023-09-17T06:32:46.640Z,4.10
2023-09-17T06:33:50.094Z,3.47
2023-09-17T06:34:52.441Z,4.43
2023-09-17T06:35:55.711Z,4.68
2023-09-17T06:36:57.984Z,3.90
2023-09-17T06:38:01.126Z,4.68
2023-09-17T06:39:05.634Z,3.53
2023-09-17T06:40:11.736Z,3.80
2023-09-17T06:41:15.585Z,3.90
2023-09-17T06:42:18.942Z,3.72
2023-09-17T06:43:22.276Z,3.47
2023-09-17T06:44:26.474Z,4.03
2023-09-17T06:45:31.443Z,4.00
2023-09-17T06:46:34.626Z,3.67
2023-09-17T06:47:36.772Z,4.45
2023-09-17T06:48:39.848Z,4.30
2023-09-17T06:49:41.790Z,3.97
2023-09-17T06:50:46.881Z,3.50
2023-09-17T06:51:50.145Z,3.60
2023-09-17T06:52:53.171Z,4.13
2023-09-17T06:53:55.083Z,4.47
2023-09-17T06:54:57.929Z,3.97
2023-09-17T06:56:00.571Z,3.80
2023-09-17T06:57:03.497Z,3.90
2023-09-17T06:58:05.491Z,3.90
2023-09-17T06:59:09.811Z,3.95
2023-09-17T07:00:12.603Z,3.45
2023-09-17T07:01:15.505Z,3.58
2023-09-17T07:02:18.130Z,3.65
2023-09-17T07:03:21.078Z,3.38
2023-09-17T07:04:23.214Z,3.88
2023-09-17T07:05:26.535Z,4.70
2023-09-17T07:06:28.612Z,4.55
2023-09-17T07:07:31.716Z,3.30
2023-09-17T07:08:33.798Z,3.90
2023-09-17T07:09:36.757Z,3.67
2023-09-17T07:10:38.669Z,3.38
2023-09-17T07:11:41.519Z,3.53
2023-09-17T07:12:44.629Z,3.42
2023-09-17T07:13:47.584Z,3.70
2023-09-17T07:14:50.838Z,3.90
2023-09-17T07:15:53.911Z,3.70
2023-09-17T07:16:55.865Z,3.75
2023-09-17T07:17:58.823Z,3.10
2023-09-17T07:19:00.822Z,3.60
2023-09-17T07:20:05.484Z,3.90
2023-09-17T07:21:07.379Z,3.33
2023-09-17T07:22:13.678Z,4.28
2023-09-17T07:23:15.720Z,3.97
2023-09-17T07:24:18.999Z,4.47
2023-09-17T07:25:21.139Z,3.95
2023-09-17T07:26:24.016Z,3.22
2023-09-17T07:27:26.961Z,3.60
2023-09-17T07:28:30.699Z,4.50
2023-09-17T07:29:32.995Z,3.40
2023-09-17T07:30:38.058Z,3.55
2023-09-17T07:31:42.683Z,4.78
2023-09-17T07:32:45.832Z,4.10
2023-09-17T07:33:47.867Z,3.80
2023-09-17T07:34:50.832Z,3.45
2023-09-17T07:35:53.775Z,3.40
2023-09-17T07:36:56.754Z,3.90
2023-09-17T07:37:58.746Z,4.10
2023-09-17T07:39:01.702Z,4.35
2023-09-17T07:40:08.553Z,4.43
2023-09-17T07:41:11.557Z,4.10
2023-09-17T07:42:14.188Z,3.55
2023-09-17T07:43:19.141Z,3.40
2023-09-17T07:44:21.511Z,3.83
2023-09-17T07:45:24.416Z,3.53
2023-09-17T07:46:27.724Z,4.00
2023-09-17T07:47:30.946Z,3.55
2023-09-17T07:48:33.005Z,3.30
2023-09-17T07:49:37.608Z,3.67
2023-09-17T07:50:41.178Z,3.30
2023-09-17T07:51:44.086Z,3.75
2023-09-17T07:52:46.521Z,3.55
2023-09-17T07:53:49.925Z,3.80
2023-09-17T07:54:52.034Z,3.40
2023-09-17T07:55:57.174Z,4.13
2023-09-17T07:56:59.199Z,3.65
2023-09-17T07:58:02.064Z,3.80
2023-09-17T07:59:04.664Z,3.60
2023-09-17T08:00:09.734Z,3.92
2023-09-17T08:01:18.086Z,4.05
2023-09-17T08:02:22.413Z,3.47
2023-09-17T08:03:24.763Z,3.50
2023-09-17T08:04:26.902Z,4.85
2023-09-17T08:05:29.817Z,4.00
2023-09-17T08:06:35.615Z,3.58
2023-09-17T08:07:38.560Z,3.65
2023-09-17T08:08:40.523Z,3.25
2023-09-17T08:09:43.406Z,3.50
2023-09-17T08:10:45.543Z,4.00
2023-09-17T08:11:51.814Z,3.50
2023-09-17T08:12:53.746Z,3.38
2023-09-17T08:13:56.708Z,3.60
2023-09-17T08:14:58.783Z,3.92
2023-09-17T08:16:01.686Z,3.55
2023-09-17T08:17:07.401Z,3.83
2023-09-17T08:18:12.324Z,3.25
2023-09-17T08:19:14.315Z,4.45
2023-09-17T08:20:17.833Z,3.35
2023-09-17T08:21:19.936Z,3.40
2023-09-17T08:22:23.653Z,3.58
2023-09-17T08:23:26.655Z,3.55
2023-09-17T08:24:29.568Z,3.75
2023-09-17T08:25:31.932Z,3.53
2023-09-17T08:26:43.692Z,3.42
2023-09-17T08:27:48.083Z,3.67
2023-09-17T08:28:51.196Z,3.25
2023-09-17T08:29:53.228Z,3.63
2023-09-17T08:30:59.126Z,3.47
2023-09-17T08:32:01.034Z,3.38
2023-09-17T08:33:10.951Z,3.60
2023-09-17T08:34:14.489Z,3.00
2023-09-17T08:35:17.542Z,4.38
2023-09-17T08:36:22.824Z,3.55
2023-09-17T08:37:25.882Z,2.92
2023-09-17T08:38:27.957Z,3.15
2023-09-17T08:39:31.377Z,2.90
2023-09-17T08:40:35.651Z,3.63
2023-09-17T08:41:41.330Z,3.65
2023-09-17T08:42:44.094Z,3.60
2023-09-17T08:43:48.099Z,3.55
2023-09-17T08:44:52.231Z,3.25
2023-09-17T08:45:56.425Z,3.08
2023-09-17T08:46:59.105Z,3.35
2023-09-17T08:48:02.281Z,3.15
2023-09-17T08:49:04.306Z,2.70
2023-09-17T08:50:12.969Z,3.38
2023-09-17T08:51:19.330Z,2.75
2023-09-17T08:52:24.272Z,2.50
2023-09-17T08:53:32.247Z,2.83
2023-09-17T08:54:41.000Z,3.60
2023-09-17T08:55:48.036Z,3.00
2023-09-17T08:56:52.925Z,3.70
2023-09-17T08:57:58.706Z,3.42
2023-09-17T08:59:08.214Z,3.28
2023-09-17T09:00:16.459Z,3.00
2023-09-17T09:01:21.862Z,2.88
2023-09-17T09:02:30.193Z,3.25
2023-09-17T09:03:36.673Z,3.05
2023-09-17T09:04:39.819Z,2.65
2023-09-17T09:05:45.702Z,3.28
2023-09-17T09:06:48.023Z,2.88
2023-09-17T09:07:53.225Z,3.67
2023-09-17T09:08:56.008Z,3.05
2023-09-17T09:09:59.818Z,3.00
2023-09-17T09:11:02.311Z,3.60
2023-09-17T09:12:21.929Z,3.35
2023-09-17T09:13:24.312Z,2.90
2023-09-17T09:14:27.690Z,3.80
2023-09-17T09:15:30.601Z,3.83
2023-09-17T09:16:37.696Z,3.60
2023-09-17T09:17:40.293Z,3.42
2023-09-17T09:18:43.258Z,2.88
2023-09-17T09:19:45.181Z,3.60
2023-09-17T09:20:49.469Z,4.07
2023-09-17T09:21:51.322Z,3.38
2023-09-17T09:22:54.394Z,3.70
2023-09-17T09:23:58.424Z,3.72
2023-09-17T09:25:01.848Z,3.20
2023-09-17T09:26:05.083Z,4.13
2023-09-17T09:27:11.573Z,3.53
2023-09-17T09:28:13.520Z,4.07
2023-09-17T09:29:16.615Z,4.25
2023-09-17T09:30:19.112Z,3.88
2023-09-17T09:31:22.089Z,3.90
2023-09-17T09:32:24.794Z,4.13
2023-09-17T09:33:28.178Z,3.40
2023-09-17T09:34:30.307Z,3.63
2023-09-17T09:35:33.360Z,3.10
2023-09-17T09:36:37.302Z,3.22
2023-09-17T09:37:42.693Z,4.43
2023-09-17T09:38:44.689Z,4.20
2023-09-17T09:39:47.833Z,3.67
2023-09-17T09:40:49.907Z,3.15
2023-09-17T09:41:52.928Z,3.90
2023-09-17T09:42:54.879Z,3.10
2023-09-17T09:43:58.736Z,3.63
2023-09-17T09:45:00.777Z,3.90
2023-09-17T09:46:05.573Z,3.38
2023-09-17T09:47:09.033Z,4.00
2023-09-17T09:48:15.541Z,4.45
2023-09-17T09:49:18.177Z,3.10
2023-09-17T09:50:25.023Z,3.33
2023-09-17T09:51:28.527Z,3.80
2023-09-17T09:52:32.972Z,4.47
2023-09-17T09:53:34.984Z,4.18
2023-09-17T09:54:37.879Z,3.63
2023-09-17T09:55:40.098Z,3.67
2023-09-17T09:56:43.193Z,3.45
2023-09-17T09:57:46.923Z,3.47
2023-09-17T09:58:51.098Z,3.30
2023-09-17T09:59:53.203Z,3.67
2023-09-17T10:00:56.303Z,3.45
2023-09-17T10:01:58.451Z,3.38
2023-09-17T10:03:00.681Z,3.33
2023-09-17T10:04:06.390Z,3.78
2023-09-17T10:05:11.447Z,3.35
2023-09-17T10:06:14.609Z,3.65
2023-09-17T10:07:18.576Z,3.88
2023-09-17T10:08:24.171Z,3.42
2023-09-17T10:09:26.629Z,3.70
2023-09-17T10:10:29.567Z,3.95
2023-09-17T10:11:32.267Z,3.50
2023-09-17T10:12:36.026Z,4.03
2023-09-17T10:13:38.311Z,4.28
2023-09-17T10:14:42.926Z,4.57
2023-09-17T10:15:45.064Z,5.05
2023-09-17T10:16:49.013Z,4.25
2023-09-17T10:17:51.383Z,3.30
2023-09-17T10:18:58.261Z,3.70
2023-09-17T10:20:01.615Z,4.05
2023-09-17T10:21:05.828Z,3.30
2023-09-17T10:22:10.444Z,3.67
2023-09-17T10:23:16.473Z,3.60
2023-09-17T10:24:20.512Z,3.60
2023-09-17T10:25:25.600Z,3.92
2023-09-17T10:26:33.904Z,4.35
2023-09-17T10:27:38.750Z,4.07
2023-09-17T10:28:41.835Z,3.45
2023-09-17T10:29:48.370Z,4.05
2023-09-17T10:30:52.431Z,3.28
2023-09-17T10:31:57.292Z,3.80
2023-09-17T10:33:00.047Z,3.60
2023-09-17T10:34:04.630Z,4.72
2023-09-17T10:35:08.375Z,3.70
2023-09-17T10:36:11.834Z,4.35
2023-09-17T10:37:17.785Z,4.18
2023-09-17T10:38:23.695Z,4.10
2023-09-17T10:39:28.501Z,3.60
2023-09-17T10:40:32.756Z,3.63
2023-09-17T10:41:38.076Z,4.00
2023-09-17T10:42:41.768Z,3.70
2023-09-17T10:43:46.782Z,4.20
2023-09-17T10:44:54.057Z,3.70
2023-09-17T10:45:57.671Z,3.78
2023-09-17T10:47:03.547Z,3.10
2023-09-17T10:48:07.549Z,4.03
2023-09-17T10:49:12.388Z,3.75
2023-09-17T10:50:16.270Z,3.17
2023-09-17T10:51:19.796Z,3.78
2023-09-17T10:52:22.949Z,3.25
2023-09-17T10:53:27.977Z,3.75
2023-09-17T10:54:31.220Z,3.90
2023-09-17T10:55:38.953Z,3.65
2023-09-17T10:56:43.757Z,3.70
2023-09-17T10:57:53.776Z,4.32
2023-09-17T10:58:55.869Z,3.75
2023-09-17T11:00:01.090Z,3.65
2023-09-17T11:01:04.078Z,3.75
2023-09-17T11:02:09.659Z,3.55
2023-09-17T11:03:16.333Z,3.55
2023-09-17T11:04:22.807Z,3.05
2023-09-17T11:05:28.415Z,3.60
2023-09-17T11:06:35.833Z,3.22
2023-09-17T11:07:40.193Z,3.50
2023-09-17T11:08:44.838Z,3.60
2023-09-17T11:09:48.589Z,3.67
2023-09-17T11:10:51.737Z,3.22
2023-09-17T11:11:53.821Z,3.20
2023-09-17T11:12:56.895Z,3.20
2023-09-17T11:13:59.249Z,4.03
2023-09-17T11:15:02.335Z,3.78
2023-09-17T11:16:04.434Z,3.45
2023-09-17T11:17:11.455Z,3.10
2023-09-17T11:18:17.751Z,3.00
2023-09-17T11:19:23.598Z,2.85
2023-09-17T11:20:25.907Z,3.80
2023-09-17T11:21:29.069Z,3.40
2023-09-17T11:22:36.820Z,3.38
2023-09-17T11:23:48.067Z,3.85
2023-09-17T11:24:51.530Z,3.95
2023-09-17T11:25:57.801Z,3.90
2023-09-17T11:27:02.427Z,3.50
2023-09-17T11:28:12.908Z,3.65
2023-09-17T11:29:15.935Z,3.40
2023-09-17T11:30:20.520Z,3.63
2023-09-17T11:31:24.487Z,3.67
2023-09-17T11:32:27.514Z,3.83
2023-09-17T11:33:30.861Z,3.47
2023-09-17T11:34:35.258Z,3.50
2023-09-17T11:35:40.764Z,3.33
2023-09-17T11:36:42.684Z,3.53
2023-09-17T11:37:45.946Z,4.05
2023-09-17T11:38:48.778Z,2.50
2023-09-17T11:39:53.984Z,3.35
2023-09-17T11:41:03.847Z,3.42
2023-09-17T11:42:08.565Z,3.00
2023-09-17T11:43:15.029Z,2.90
2023-09-17T11:44:17.334Z,3.20
2023-09-17T11:45:20.445Z,3.05
2023-09-17T11:46:24.293Z,3.33
2023-09-17T11:47:29.666Z,3.05
2023-09-17T11:48:34.553Z,3.47
2023-09-17T11:49:41.788Z,2.55
2023-09-17T11:50:43.700Z,2.75
2023-09-17T11:51:48.130Z,3.15
2023-09-17T11:53:07.488Z,3.00
2023-09-17T11:54:16.327Z,2.88
2023-09-17T11:55:24.368Z,3.13
2023-09-17T11:56:29.344Z,4.25
2023-09-17T11:57:31.247Z,2.85
2023-09-17T11:58:36.272Z,3.50
2023-09-17T11:59:39.356Z,2.72
2023-09-17T12:00:42.592Z,3.33
2023-09-17T12:01:48.394Z,3.03
2023-09-17T12:02:51.590Z,2.65
2023-09-17T12:03:55.273Z,3.08
2023-09-17T12:05:00.441Z,2.95
2023-09-17T12:06:02.553Z,3.38
2023-09-17T12:07:10.158Z,2.42
2023-09-17T12:08:12.729Z,3.60
2023-09-17T12:09:22.350Z,2.85
2023-09-17T12:10:30.244Z,2.78
2023-09-17T12:11:33.277Z,3.42
2023-09-17T12:12:37.042Z,3.10
2023-09-17T12:13:39.939Z,3.35
2023-09-17T12:14:42.617Z,3.20
2023-09-17T12:15:45.634Z,2.63
2023-09-17T12:16:48.759Z,3.30
2023-09-17T12:17:52.781Z,3.13
2023-09-17T12:19:03.760Z,3.10
2023-09-17T12:20:34.585Z,3.10
2023-09-17T12:21:40.648Z,3.17
2023-09-17T12:22:55.613Z,3.40
2023-09-17T12:23:58.610Z,3.20
2023-09-17T12:25:07.041Z,2.95
2023-09-17T12:26:10.400Z,3.00
2023-09-17T12:27:26.101Z,2.90
2023-09-17T12:28:28.940Z,2.95
2023-09-17T12:29:31.848Z,2.80
2023-09-17T12:30:33.901Z,3.83
2023-09-17T12:31:38.186Z,3.67
2023-09-17T12:32:40.295Z,3.10
2023-09-17T12:33:44.475Z,3.70
2023-09-17T12:34:49.391Z,2.10
2023-09-17T12:35:53.494Z,3.20
2023-09-17T12:36:55.372Z,2.85
2023-09-17T12:37:58.527Z,3.47
2023-09-17T12:39:01.466Z,2.95
2023-09-17T12:40:08.476Z,3.22
2023-09-17T12:41:13.797Z,3.33
2023-09-17T12:42:16.488Z,3.28
2023-09-17T12:43:19.384Z,2.85
2023-09-17T12:44:21.335Z,3.08
2023-09-17T12:45:24.721Z,3.25
2023-09-17T12:46:27.992Z,3.47
2023-09-17T12:47:33.790Z,2.63
2023-09-17T12:48:36.156Z,3.17
2023-09-17T12:49:39.341Z,2.78
2023-09-17T12:50:44.056Z,4.00
2023-09-17T12:51:47.145Z,2.45
2023-09-17T12:52:49.177Z,2.95
2023-09-17T12:53:52.771Z,2.78
2023-09-17T12:54:58.396Z,2.80
2023-09-17T12:56:02.492Z,3.38
2023-09-17T12:57:07.013Z,2.70
2023-09-17T12:58:10.075Z,3.53
2023-09-17T12:59:12.139Z,2.95
2023-09-17T13:00:16.625Z,3.15
2023-09-17T13:01:18.850Z,2.60
2023-09-17T13:02:29.664Z,2.60
2023-09-17T13:03:32.105Z,2.90
2023-09-17T13:04:37.611Z,3.10
2023-09-17T13:05:39.723Z,2.60
2023-09-17T13:06:42.682Z,3.40
2023-09-17T13:07:44.782Z,2.70
2023-09-17T13:08:49.246Z,2.90
2023-09-17T13:09:55.919Z,3.10
2023-09-17T13:11:01.152Z,3.03
2023-09-17T13:12:03.533Z,2.60
2023-09-17T13:13:08.513Z,2.72
2023-09-17T13:14:10.596Z,2.90
2023-09-17T13:15:13.595Z,2.40
2023-09-17T13:16:17.160Z,3.15
2023-09-17T13:17:19.573Z,2.40
2023-09-17T13:18:22.834Z,2.85
2023-09-17T13:19:24.781Z,2.60
2023-09-17T13:20:28.349Z,2.15
2023-09-17T13:21:31.416Z,2.58
2023-09-17T13:22:36.921Z,2.72
2023-09-17T13:23:39.535Z,3.10
2023-09-17T13:24:42.643Z,2.53
2023-09-17T13:25:45.461Z,2.75
2023-09-17T13:26:48.835Z,2.60
2023-09-17T13:27:50.820Z,2.38
2023-09-17T13:28:55.592Z,2.38
2023-09-17T13:29:57.681Z,2.65
2023-09-17T13:31:02.126Z,2.83
2023-09-17T13:32:05.492Z,2.22
2023-09-17T13:33:08.507Z,2.85
2023-09-17T13:34:11.509Z,2.55
2023-09-17T13:35:14.775Z,2.60
2023-09-17T13:36:18.822Z,3.25
2023-09-17T13:37:22.161Z,2.83
2023-09-17T13:38:24.211Z,2.70
2023-09-17T13:39:27.282Z,2.40
2023-09-17T13:40:29.340Z,3.00
2023-09-17T13:41:32.226Z,2.30
2023-09-17T13:42:34.548Z,3.00
2023-09-17T13:43:37.574Z,2.45
2023-09-17T13:44:40.957Z,2.63
2023-09-17T13:45:54.086Z,2.70
2023-09-17T13:46:57.130Z,2.53
2023-09-17T13:48:00.264Z,2.67
2023-09-17T13:49:02.312Z,2.40
2023-09-17T13:50:05.702Z,2.92
2023-09-17T13:51:08.605Z,2.65
2023-09-17T13:52:13.400Z,2.58
2023-09-17T13:53:16.658Z,2.40
2023-09-17T13:54:18.842Z,3.10
2023-09-17T13:55:21.774Z,2.60
2023-09-17T13:56:26.619Z,2.83
2023-09-17T13:57:29.545Z,3.15
2023-09-17T13:58:31.403Z,2.80
2023-09-17T13:59:34.301Z,2.72
2023-09-17T14:00:37.714Z,2.33
2023-09-17T14:01:41.923Z,3.08
2023-09-17T14:02:44.077Z,2.92
2023-09-17T14:03:46.984Z,2.90
2023-09-17T14:04:49.503Z,2.65
2023-09-17T14:05:52.608Z,2.40
2023-09-17T14:06:56.410Z,2.50
2023-09-17T14:07:59.887Z,3.10
2023-09-17T14:09:01.874Z,3.22
2023-09-17T14:10:05.565Z,3.30